Time;durP1;ratioP1;P1;durP2;ratioP2;P2;SDS_P1;SDS_P2;PMS_P1;PMS_P2;Temp;Humidity;BMP_temperature;BMP_pressure;BME280_temperature;BME280_humidity;BME280_pressure;Samples;Min_cycle;Max_cycle;Signal;HPM_P1;HPM_P2
2022/03/04 00:00:35;;;;;;;18.17;13.15;;;;;;;;;;143732;573;46012;-66
2022/03/04 00:03:02;;;;;;;22.55;15.75;;;;;;;;;;143730;564;46018;-65
2022/03/04 00:05:29;;;;;;;17.80;13.18;;;;;;;;;;143728;679;46010;-65
2022/03/04 00:07:56;;;;;;;18.02;13.10;;;;;;;;;;143732;608;45019;-66
2022/03/04 00:10:23;;;;;;;24.05;15.00;;;;;;;;;;143734;569;45022;-65
2022/03/04 00:12:50;;;;;;;22.95;13.90;;;;;;;;;;143728;574;46018;-65
2022/03/04 00:15:17;;;;;;;16.33;12.02;;;;;;;;;;143728;666;46010;-65
2022/03/04 00:17:44;;;;;;;23.52;14.50;;;;;;;;;;143730;572;45018;-65
2022/03/04 00:20:11;;;;;;;16.12;11.40;;;;;;;;;;143733;563;46022;-66
2022/03/04 00:22:38;;;;;;;17.85;12.60;;;;;;;;;;143728;571;46019;-65
2022/03/04 00:25:06;;;;;;;19.37;13.65;;;;;;;;;;143728;575;46010;-65
2022/03/04 00:27:33;;;;;;;18.33;12.32;;;;;;;;;;143731;573;45018;-65
2022/03/04 00:30:01;;;;;;;17.42;12.95;;;;;;;;;;143732;581;46023;-67
2022/03/04 00:32:28;;;;;;;18.80;13.75;;;;;;;;;;143726;598;47018;-65
2022/03/04 00:34:55;;;;;;;24.02;13.55;;;;;;;;;;143727;578;46010;-67
2022/03/04 00:37:21;;;;;;;19.77;11.75;;;;;;;;;;143730;576;45019;-65
2022/03/04 00:39:49;;;;;;;16.40;11.70;;;;;;;;;;143732;606;46022;-65
2022/03/04 00:42:16;;;;;;;16.20;11.98;;;;;;;;;;143726;565;46026;-66
2022/03/04 00:44:43;;;;;;;18.08;12.15;;;;;;;;;;143724;570;46919;-66
2022/03/04 00:47:10;;;;;;;16.85;11.12;;;;;;;;;;143727;569;45018;-65
2022/03/04 00:49:37;;;;;;;18.87;11.52;;;;;;;;;;143731;685;46012;-65
2022/03/04 00:52:04;;;;;;;15.73;10.82;;;;;;;;;;143728;597;46019;-65
2022/03/04 00:54:31;;;;;;;15.77;11.55;;;;;;;;;;143726;583;46010;-65
2022/03/04 00:56:58;;;;;;;16.25;11.45;;;;;;;;;;143730;593;45018;-65
2022/03/04 00:59:25;;;;;;;15.68;10.95;;;;;;;;;;143732;624;45023;-66
2022/03/04 01:01:52;;;;;;;16.95;12.18;;;;;;;;;;143725;570;46020;-65
2022/03/04 01:04:19;;;;;;;19.30;12.90;;;;;;;;;;143728;614;46010;-65
2022/03/04 01:06:46;;;;;;;18.95;13.80;;;;;;;;;;143729;605;45019;-65
2022/03/04 01:09:13;;;;;;;17.92;11.82;;;;;;;;;;143731;603;46012;-65
2022/03/04 01:11:41;;;;;;;20.67;14.55;;;;;;;;;;143726;595;46018;-65
2022/03/04 01:14:09;;;;;;;18.55;12.25;;;;;;;;;;143729;778;46010;-66
2022/03/04 01:16:36;;;;;;;18.73;13.18;;;;;;;;;;143729;570;45022;-65
2022/03/04 01:19:03;;;;;;;19.27;14.60;;;;;;;;;;143731;659;46022;-65
2022/03/04 01:21:30;;;;;;;17.60;13.00;;;;;;;;;;143729;564;46018;-66
2022/03/04 01:23:57;;;;;;;18.73;12.57;;;;;;;;;;143726;611;46010;-65
2022/03/04 01:26:24;;;;;;;19.08;14.18;;;;;;;;;;143729;578;45018;-65
2022/03/04 01:28:52;;;;;;;19.45;11.55;;;;;;;;;;143733;587;45023;-65
2022/03/04 01:31:19;;;;;;;17.87;12.23;;;;;;;;;;143725;644;46018;-65
2022/03/04 01:33:46;;;;;;;19.25;13.05;;;;;;;;;;143727;569;46010;-66
2022/03/04 01:36:13;;;;;;;16.52;12.18;;;;;;;;;;143729;567;45019;-65
2022/03/04 01:38:40;;;;;;;19.27;13.40;;;;;;;;;;143730;609;46012;-65
2022/03/04 01:41:07;;;;;;;19.60;13.18;;;;;;;;;;143725;632;47018;-65
2022/03/04 01:43:35;;;;;;;19.50;12.98;;;;;;;;;;143728;579;46010;-66
2022/03/04 01:46:27;;;;;;;16.92;12.25;;;;;;;;;;143729;669;45018;-66
2022/03/04 01:48:54;;;;;;;14.65;11.02;;;;;;;;;;143732;706;45022;-65
2022/03/04 01:51:21;;;;;;;16.73;12.45;;;;;;;;;;143726;587;46019;-66
2022/03/04 01:53:48;;;;;;;18.70;13.32;;;;;;;;;;143727;642;46010;-65
2022/03/04 01:56:15;;;;;;;16.67;13.50;;;;;;;;;;143730;577;45018;-65
2022/03/04 01:58:42;;;;;;;15.63;11.45;;;;;;;;;;143732;569;45023;-66
2022/03/04 02:01:10;;;;;;;14.80;11.07;;;;;;;;;;143726;565;46018;-66
2022/03/04 02:03:37;;;;;;;14.73;11.02;;;;;;;;;;143725;603;46010;-66
2022/03/04 02:06:04;;;;;;;16.75;10.60;;;;;;;;;;143729;587;45019;-66
2022/03/04 02:08:31;;;;;;;16.98;12.77;;;;;;;;;;143732;591;45031;-65
2022/03/04 02:10:58;;;;;;;21.33;12.07;;;;;;;;;;143725;577;47018;-65
2022/03/04 02:13:25;;;;;;;18.33;12.63;;;;;;;;;;143726;599;46010;-66
2022/03/04 02:15:52;;;;;;;13.93;11.32;;;;;;;;;;143728;566;45018;-65
2022/03/04 02:18:19;;;;;;;19.65;11.95;;;;;;;;;;143732;587;45022;-65
2022/03/04 02:20:49;;;;;;;16.55;10.05;;;;;;;;;;143725;581;47018;-66
2022/03/04 02:23:17;;;;;;;14.95;10.27;;;;;;;;;;143727;582;46010;-65
2022/03/04 02:25:50;;;;;;;14.60;10.55;;;;;;;;;;143727;581;45018;-66
2022/03/04 02:28:18;;;;;;;17.05;11.85;;;;;;;;;;143731;664;46023;-65
2022/03/04 02:30:45;;;;;;;21.20;13.30;;;;;;;;;;143725;597;46020;-65
2022/03/04 02:33:12;;;;;;;23.00;14.60;;;;;;;;;;143726;597;46010;-66
2022/03/04 02:35:41;;;;;;;18.08;12.52;;;;;;;;;;143729;569;45019;-65
2022/03/04 02:38:08;;;;;;;15.77;10.80;;;;;;;;;;143732;601;45024;-66
2022/03/04 02:40:36;;;;;;;24.70;13.45;;;;;;;;;;143726;569;46018;-65
2022/03/04 02:43:04;;;;;;;21.37;15.55;;;;;;;;;;143728;577;46010;-66
2022/03/04 02:45:31;;;;;;;20.90;14.38;;;;;;;;;;143728;704;45018;-65
2022/03/04 02:47:58;;;;;;;18.33;13.38;;;;;;;;;;143732;625;45022;-66
2022/03/04 02:50:25;;;;;;;22.27;13.40;;;;;;;;;;143726;592;46019;-66
2022/03/04 02:52:52;;;;;;;15.60;12.07;;;;;;;;;;143725;590;46010;-66
2022/03/04 02:55:19;;;;;;;17.27;11.95;;;;;;;;;;143729;569;45018;-66
2022/03/04 02:57:47;;;;;;;17.80;12.75;;;;;;;;;;143731;676;46023;-67
2022/03/04 03:00:16;;;;;;;18.60;12.07;;;;;;;;;;143727;664;46018;-67
2022/03/04 03:02:44;;;;;;;20.80;12.57;;;;;;;;;;143726;604;46010;-66
2022/03/04 03:05:11;;;;;;;15.77;11.55;;;;;;;;;;143730;573;45019;-67
2022/03/04 03:07:38;;;;;;;15.48;11.00;;;;;;;;;;143732;579;45022;-67
2022/03/04 03:10:06;;;;;;;13.75;10.32;;;;;;;;;;143727;623;46018;-65
2022/03/04 03:12:33;;;;;;;18.75;12.95;;;;;;;;;;143724;569;46011;-65
2022/03/04 03:15:00;;;;;;;20.23;13.00;;;;;;;;;;143727;669;46012;-65
2022/03/04 03:17:27;;;;;;;15.48;10.93;;;;;;;;;;143731;603;46022;-65
2022/03/04 03:19:54;;;;;;;14.10;11.05;;;;;;;;;;143728;588;46019;-66
2022/03/04 03:22:21;;;;;;;13.68;10.20;;;;;;;;;;143727;579;46012;-65
2022/03/04 03:24:48;;;;;;;21.83;14.02;;;;;;;;;;143729;569;45020;-66
2022/03/04 03:27:15;;;;;;;19.20;13.75;;;;;;;;;;143731;693;46020;-65
2022/03/04 03:29:43;;;;;;;19.62;12.52;;;;;;;;;;143728;577;46018;-65
2022/03/04 03:32:10;;;;;;;13.02;10.65;;;;;;;;;;143727;572;46012;-66
2022/03/04 03:34:38;;;;;;;14.60;10.40;;;;;;;;;;143730;564;45019;-66
2022/03/04 03:37:06;;;;;;;14.63;10.05;;;;;;;;;;143727;638;46022;-66
2022/03/04 03:39:33;;;;;;;15.10;10.70;;;;;;;;;;143726;573;46018;-66
2022/03/04 03:42:00;;;;;;;13.02;9.90;;;;;;;;;;143727;594;46012;-66
2022/03/04 03:44:27;;;;;;;26.90;12.35;;;;;;;;;;143728;634;45018;-66
2022/03/04 03:46:55;;;;;;;16.00;10.65;;;;;;;;;;143731;600;46012;-65
2022/03/04 03:49:22;;;;;;;21.33;12.77;;;;;;;;;;143725;592;47019;-67
2022/03/04 03:51:49;;;;;;;15.77;11.30;;;;;;;;;;143726;659;46012;-66
2022/03/04 03:54:17;;;;;;;16.92;9.75;;;;;;;;;;143729;581;45018;-66
2022/03/04 03:56:44;;;;;;;20.60;12.95;;;;;;;;;;143732;656;45023;-66
2022/03/04 03:59:11;;;;;;;17.45;12.70;;;;;;;;;;143726;587;46018;-67
2022/03/04 04:01:38;;;;;;;15.82;11.25;;;;;;;;;;143725;569;46012;-65
2022/03/04 04:04:09;;;;;;;19.55;10.05;;;;;;;;;;143725;573;46019;-65
2022/03/04 04:06:36;;;;;;;16.50;10.52;;;;;;;;;;143731;656;46012;-66
2022/03/04 04:09:03;;;;;;;18.35;10.40;;;;;;;;;;143726;577;46018;-65
2022/03/04 04:11:35;;;;;;;21.08;12.23;;;;;;;;;;143726;575;46013;-66
2022/03/04 04:14:03;;;;;;;17.45;12.45;;;;;;;;;;143728;576;45019;-65
2022/03/04 04:16:31;;;;;;;14.27;10.05;;;;;;;;;;143729;587;46022;-66
2022/03/04 04:18:58;;;;;;;17.90;12.05;;;;;;;;;;143728;615;46019;-65
2022/03/04 04:21:26;;;;;;;19.25;10.52;;;;;;;;;;143725;584;46012;-66
2022/03/04 04:23:56;;;;;;;21.83;14.30;;;;;;;;;;143728;634;45018;-65
2022/03/04 04:26:24;;;;;;;25.65;15.23;;;;;;;;;;143731;577;46012;-65
2022/03/04 04:28:51;;;;;;;31.98;17.80;;;;;;;;;;143725;572;46019;-66
2022/03/04 04:31:19;;;;;;;20.20;12.68;;;;;;;;;;143728;619;46012;-65
2022/03/04 04:33:46;;;;;;;20.88;14.73;;;;;;;;;;143729;593;45019;-66
2022/03/04 04:36:13;;;;;;;15.60;11.63;;;;;;;;;;143731;727;46023;-65
2022/03/04 04:38:40;;;;;;;28.20;15.57;;;;;;;;;;143728;678;46018;-66
2022/03/04 04:41:07;;;;;;;24.33;13.85;;;;;;;;;;143725;571;46012;-65
2022/03/04 04:43:35;;;;;;;18.10;12.75;;;;;;;;;;143728;650;45018;-65
2022/03/04 04:46:02;;;;;;;27.27;16.83;;;;;;;;;;143732;564;45022;-65
2022/03/04 04:48:30;;;;;;;24.98;16.55;;;;;;;;;;143726;640;46019;-67
2022/03/04 04:50:59;;;;;;;37.88;20.42;;;;;;;;;;143724;575;46012;-66
2022/03/04 04:53:27;;;;;;;26.00;14.75;;;;;;;;;;143728;578;45018;-68
2022/03/04 04:55:54;;;;;;;18.87;12.88;;;;;;;;;;143732;599;45032;-67
2022/03/04 04:58:21;;;;;;;35.72;22.85;;;;;;;;;;143729;585;46018;-66
2022/03/04 05:00:53;;;;;;;43.58;23.12;;;;;;;;;;143725;604;46022;-66
2022/03/04 05:03:21;;;;;;;65.37;29.42;;;;;;;;;;143726;570;45019;-65
2022/03/04 05:05:49;;;;;;;72.50;32.88;;;;;;;;;;143731;564;46023;-66
2022/03/04 05:08:16;;;;;;;64.00;29.70;;;;;;;;;;143723;608;48020;-67
2022/03/04 05:10:44;;;;;;;54.35;26.75;;;;;;;;;;143729;566;46013;-65
2022/03/04 05:13:11;;;;;;;72.28;33.33;;;;;;;;;;143729;574;45019;-66
2022/03/04 05:15:39;;;;;;;63.58;35.15;;;;;;;;;;143732;588;45027;-67
2022/03/04 05:18:06;;;;;;;88.45;43.92;;;;;;;;;;143727;588;46019;-68
2022/03/04 05:20:33;;;;;;;63.63;33.83;;;;;;;;;;143726;629;46012;-66
2022/03/04 05:23:00;;;;;;;64.25;34.90;;;;;;;;;;143728;589;45018;-68
2022/03/04 05:25:27;;;;;;;57.17;28.45;;;;;;;;;;143732;567;45022;-66
2022/03/04 05:27:54;;;;;;;44.42;24.77;;;;;;;;;;143725;657;46021;-66
2022/03/04 05:30:21;;;;;;;41.25;22.25;;;;;;;;;;143728;570;46021;-65
2022/03/04 05:32:48;;;;;;;33.90;19.98;;;;;;;;;;143729;593;45018;-67
2022/03/04 05:35:15;;;;;;;42.85;27.08;;;;;;;;;;143732;591;45023;-65
2022/03/04 05:37:43;;;;;;;96.07;62.25;;;;;;;;;;143728;588;46014;-66
2022/03/04 05:40:11;;;;;;;64.00;43.42;;;;;;;;;;143727;581;46012;-66
2022/03/04 05:42:38;;;;;;;62.92;40.92;;;;;;;;;;143729;601;45019;-66
2022/03/04 05:45:06;;;;;;;42.03;28.62;;;;;;;;;;143732;569;45028;-67
2022/03/04 05:47:33;;;;;;;45.20;30.77;;;;;;;;;;143726;619;46018;-68
2022/03/04 05:50:00;;;;;;;39.92;24.60;;;;;;;;;;143728;581;46012;-66
2022/03/04 05:52:27;;;;;;;42.15;27.10;;;;;;;;;;143729;579;45018;-66
2022/03/04 05:54:54;;;;;;;53.78;31.87;;;;;;;;;;143732;687;45023;-66
2022/03/04 05:57:21;;;;;;;61.22;36.10;;;;;;;;;;143728;576;46019;-67
2022/03/04 05:59:48;;;;;;;52.20;29.25;;;;;;;;;;143727;604;46012;-67
2022/03/04 06:02:15;;;;;;;44.08;23.25;;;;;;;;;;143730;583;45019;-68
2022/03/04 06:04:42;;;;;;;38.97;25.77;;;;;;;;;;143732;738;45033;-66
2022/03/04 06:07:09;;;;;;;33.85;20.73;;;;;;;;;;143726;600;46018;-66
2022/03/04 06:09:37;;;;;;;40.03;20.80;;;;;;;;;;143725;625;46012;-66
2022/03/04 06:12:04;;;;;;;35.35;20.42;;;;;;;;;;143728;616;45019;-66
2022/03/04 06:14:31;;;;;;;34.53;20.30;;;;;;;;;;143730;612;46012;-67
2022/03/04 06:16:58;;;;;;;33.63;21.80;;;;;;;;;;143726;611;46018;-66
2022/03/04 06:19:25;;;;;;;37.72;21.33;;;;;;;;;;143726;627;46012;-65
2022/03/04 06:21:52;;;;;;;32.60;21.55;;;;;;;;;;143729;564;45018;-66
2022/03/04 06:24:20;;;;;;;33.65;21.17;;;;;;;;;;143731;639;46022;-67
2022/03/04 06:26:47;;;;;;;34.53;20.17;;;;;;;;;;143728;630;46019;-66
2022/03/04 06:29:14;;;;;;;35.45;19.58;;;;;;;;;;143727;566;46012;-67
2022/03/04 06:31:41;;;;;;;36.80;21.33;;;;;;;;;;143729;627;45018;-66
2022/03/04 06:34:08;;;;;;;35.67;21.15;;;;;;;;;;143731;594;46023;-66
2022/03/04 06:36:35;;;;;;;35.42;21.73;;;;;;;;;;143726;617;46018;-67
2022/03/04 06:39:02;;;;;;;36.78;21.15;;;;;;;;;;143726;578;46012;-64
2022/03/04 06:41:29;;;;;;;38.50;23.98;;;;;;;;;;143730;577;45019;-66
2022/03/04 06:43:56;;;;;;;37.10;21.48;;;;;;;;;;143730;569;46012;-64
2022/03/04 06:46:23;;;;;;;35.97;20.23;;;;;;;;;;143726;565;46018;-64
2022/03/04 06:48:50;;;;;;;45.12;22.85;;;;;;;;;;143725;564;46013;-66
2022/03/04 06:51:17;;;;;;;35.30;19.37;;;;;;;;;;143729;607;45018;-64
2022/03/04 06:53:44;;;;;;;35.08;21.58;;;;;;;;;;143732;590;46022;-65
2022/03/04 06:56:12;;;;;;;60.45;29.67;;;;;;;;;;143726;569;46021;-68
2022/03/04 06:58:40;;;;;;;52.85;27.98;;;;;;;;;;143729;577;46022;-67
2022/03/04 07:01:07;;;;;;;50.40;27.95;;;;;;;;;;143725;614;46018;-67
2022/03/04 07:03:34;;;;;;;48.10;25.35;;;;;;;;;;143733;625;45023;-66
2022/03/04 07:06:01;;;;;;;52.60;28.75;;;;;;;;;;143728;591;46018;-67
2022/03/04 07:08:28;;;;;;;46.80;22.83;;;;;;;;;;143726;596;46012;-66
2022/03/04 07:10:55;;;;;;;37.03;22.40;;;;;;;;;;143729;613;45019;-67
2022/03/04 07:13:22;;;;;;;42.62;22.77;;;;;;;;;;143733;580;45023;-66
2022/03/04 07:15:49;;;;;;;38.75;22.75;;;;;;;;;;143725;609;46020;-66
2022/03/04 07:18:15;;;;;;;34.53;19.85;;;;;;;;;;143728;610;46920;-67
2022/03/04 07:20:42;;;;;;;32.63;21.05;;;;;;;;;;143726;615;46020;-67
2022/03/04 07:23:09;;;;;;;34.58;22.95;;;;;;;;;;143733;583;45020;-66
2022/03/04 07:25:36;;;;;;;38.03;19.10;;;;;;;;;;143729;577;46021;-67
2022/03/04 07:28:04;;;;;;;30.45;20.02;;;;;;;;;;143726;628;46012;-68
2022/03/04 07:30:38;;;;;;;29.50;18.98;;;;;;;;;;143729;571;45020;-68
2022/03/04 07:33:14;;;;;;;26.25;17.27;;;;;;;;;;143731;573;46013;-68
2022/03/04 07:35:52;;;;;;;27.25;17.80;;;;;;;;;;143728;565;46022;-69
2022/03/04 07:38:21;;;;;;;27.37;18.55;;;;;;;;;;143729;594;46012;-66
2022/03/04 07:41:00;;;;;;;23.27;16.25;;;;;;;;;;143730;659;46021;-68
2022/03/04 07:43:43;;;;;;;20.80;15.38;;;;;;;;;;143733;575;45020;-66
2022/03/04 07:46:33;;;;;;;25.88;14.80;;;;;;;;;;143730;576;45913;-67
2022/03/04 07:49:11;;;;;;;22.23;14.75;;;;;;;;;;143730;613;45918;-66
2022/03/04 08:07:17;;;;;;;47.45;25.17;;;;;;;;;;143731;577;45020;-66
2022/03/04 08:09:44;;;;;;;48.05;27.98;;;;;;;;;;143730;591;46012;-69
2022/03/04 08:12:12;;;;;;;50.88;27.92;;;;;;;;;;143727;579;46020;-66
2022/03/04 08:14:39;;;;;;;41.28;24.35;;;;;;;;;;143733;601;45033;-67
2022/03/04 08:17:06;;;;;;;36.47;20.70;;;;;;;;;;143727;587;46021;-67
2022/03/04 08:19:33;;;;;;;37.95;22.10;;;;;;;;;;143725;615;46035;-68
2022/03/04 08:22:00;;;;;;;31.92;18.92;;;;;;;;;;143729;637;46020;-68
2022/03/04 08:24:27;;;;;;;43.58;22.50;;;;;;;;;;143729;618;46020;-66
2022/03/04 08:26:54;;;;;;;41.10;22.83;;;;;;;;;;143728;564;46020;-66
2022/03/04 08:29:21;;;;;;;31.87;20.00;;;;;;;;;;143726;599;46012;-66
2022/03/04 08:31:48;;;;;;;41.30;20.58;;;;;;;;;;143728;632;46020;-68
2022/03/04 08:34:15;;;;;;;26.50;16.77;;;;;;;;;;143732;605;46021;-65
2022/03/04 08:36:42;;;;;;;25.80;16.35;;;;;;;;;;143724;595;47022;-66
2022/03/04 08:39:09;;;;;;;22.13;15.30;;;;;;;;;;143725;613;46013;-66
2022/03/04 08:41:36;;;;;;;22.30;16.10;;;;;;;;;;143730;565;45021;-67
2022/03/04 08:44:04;;;;;;;25.17;15.90;;;;;;;;;;143731;600;46020;-66
2022/03/04 08:46:30;;;;;;;23.38;15.52;;;;;;;;;;143728;571;46020;-65
2022/03/04 08:48:57;;;;;;;25.08;16.95;;;;;;;;;;143728;588;46919;-66
2022/03/04 08:51:26;;;;;;;22.23;14.90;;;;;;;;;;143731;615;45021;-66
2022/03/04 08:53:54;;;;;;;26.10;16.40;;;;;;;;;;143732;580;46020;-66
2022/03/04 08:56:21;;;;;;;22.52;14.23;;;;;;;;;;143729;570;46021;-67
2022/03/04 08:58:48;;;;;;;26.50;16.62;;;;;;;;;;143728;584;46012;-68
2022/03/04 09:01:15;;;;;;;30.02;16.67;;;;;;;;;;143729;628;45021;-65
2022/03/04 09:03:42;;;;;;;24.42;15.48;;;;;;;;;;143732;580;46021;-67
2022/03/04 09:06:09;;;;;;;24.63;15.27;;;;;;;;;;143729;588;46020;-66
2022/03/04 09:08:36;;;;;;;21.08;13.35;;;;;;;;;;143729;570;46013;-66
2022/03/04 09:11:03;;;;;;;23.17;12.85;;;;;;;;;;143730;569;45021;-67
2022/03/04 09:13:32;;;;;;;23.98;15.18;;;;;;;;;;143734;590;45020;-65
2022/03/04 09:16:00;;;;;;;22.05;14.75;;;;;;;;;;143729;571;46022;-66
2022/03/04 09:18:27;;;;;;;20.00;12.57;;;;;;;;;;143729;585;46012;-66
2022/03/04 09:20:54;;;;;;;23.70;13.62;;;;;;;;;;143731;590;45020;-67
2022/03/04 09:23:21;;;;;;;23.95;14.73;;;;;;;;;;143729;576;46020;-66
2022/03/04 09:25:49;;;;;;;24.83;13.25;;;;;;;;;;143730;567;46020;-66
2022/03/04 09:28:16;;;;;;;22.30;14.23;;;;;;;;;;143730;600;46012;-65
2022/03/04 09:30:44;;;;;;;22.37;13.90;;;;;;;;;;143729;607;46913;-67
2022/03/04 09:33:15;;;;;;;22.30;13.88;;;;;;;;;;143734;569;45021;-68
2022/03/04 09:35:48;;;;;;;23.02;12.10;;;;;;;;;;143731;586;46020;-67
2022/03/04 09:38:16;;;;;;;18.85;12.05;;;;;;;;;;143730;588;46012;-68
2022/03/04 09:40:49;;;;;;;19.73;12.48;;;;;;;;;;143729;600;46021;-66
2022/03/04 09:43:24;;;;;;;17.08;12.48;;;;;;;;;;143730;569;46020;-67
2022/03/04 09:45:52;;;;;;;17.35;12.32;;;;;;;;;;143728;574;46014;-67
2022/03/04 09:48:21;;;;;;;20.60;12.35;;;;;;;;;;143730;667;46012;-67
2022/03/04 09:50:52;;;;;;;15.45;10.15;;;;;;;;;;143729;603;45913;-68
2022/03/04 09:53:23;;;;;;;22.40;14.05;;;;;;;;;;143734;594;45021;-67
2022/03/04 09:55:50;;;;;;;16.35;10.95;;;;;;;;;;143730;567;45915;-67
2022/03/04 09:58:18;;;;;;;33.75;19.65;;;;;;;;;;143728;619;46012;-67
2022/03/04 10:00:46;;;;;;;14.85;10.13;;;;;;;;;;143728;627;46020;-66
2022/03/04 10:03:49;;;;;;;20.90;13.57;;;;;;;;;;143734;631;45032;-65
2022/03/04 10:06:17;;;;;;;15.20;10.43;;;;;;;;;;143726;625;47016;-67
2022/03/04 10:08:52;;;;;;;15.55;11.02;;;;;;;;;;143728;566;46008;-66
2022/03/04 10:11:39;;;;;;;14.50;9.60;;;;;;;;;;143732;609;45017;-66
2022/03/04 10:14:13;;;;;;;15.93;11.23;;;;;;;;;;143734;578;45020;-67
2022/03/04 10:16:42;;;;;;;15.87;10.97;;;;;;;;;;143727;616;46018;-65
2022/03/04 10:19:28;;;;;;;17.98;12.25;;;;;;;;;;143729;596;46923;-66
2022/03/04 10:22:00;;;;;;;19.27;12.50;;;;;;;;;;143727;563;46016;-66
2022/03/04 10:24:35;;;;;;;16.55;11.82;;;;;;;;;;143734;595;45021;-66
2022/03/04 10:27:18;;;;;;;25.08;12.15;;;;;;;;;;143730;605;46018;-66
2022/03/04 10:29:50;;;;;;;19.17;11.93;;;;;;;;;;143728;618;46008;-67
2022/03/04 10:32:24;;;;;;;17.83;11.30;;;;;;;;;;143731;564;45017;-67
2022/03/04 10:34:54;;;;;;;16.33;12.52;;;;;;;;;;143731;585;46008;-67
2022/03/04 10:37:51;;;;;;;22.62;12.90;;;;;;;;;;143729;571;46016;-66
2022/03/04 10:40:35;;;;;;;16.52;11.93;;;;;;;;;;143731;612;45923;-68
2022/03/04 10:43:06;;;;;;;17.98;12.80;;;;;;;;;;143730;622;45912;-67
2022/03/04 10:45:41;;;;;;;17.77;12.32;;;;;;;;;;143732;570;46020;-66
2022/03/04 10:48:19;;;;;;;17.40;11.75;;;;;;;;;;143730;606;47016;-67
2022/03/04 10:50:51;;;;;;;19.62;13.45;;;;;;;;;;143731;584;45923;-67
2022/03/04 10:53:24;;;;;;;20.60;13.45;;;;;;;;;;143729;586;46017;-67
2022/03/04 10:55:56;;;;;;;19.55;12.73;;;;;;;;;;143733;578;46008;-66
2022/03/04 10:58:28;;;;;;;19.02;12.32;;;;;;;;;;143729;563;46016;-66
2022/03/04 11:01:01;;;;;;;16.98;12.02;;;;;;;;;;143729;610;46009;-67
2022/03/04 11:03:29;;;;;;;18.58;11.75;;;;;;;;;;143731;603;45016;-65
2022/03/04 11:05:58;;;;;;;16.08;11.73;;;;;;;;;;143731;672;46020;-67
2022/03/04 11:08:26;;;;;;;15.32;12.13;;;;;;;;;;143726;598;47017;-65
2022/03/04 11:10:55;;;;;;;18.33;11.60;;;;;;;;;;143729;667;46008;-67
2022/03/04 11:13:21;;;;;;;15.43;11.65;;;;;;;;;;143730;577;45016;-65
2022/03/04 11:15:49;;;;;;;16.77;10.88;;;;;;;;;;143734;629;45031;-68
2022/03/04 11:18:18;;;;;;;16.08;11.70;;;;;;;;;;143728;575;46037;-67
2022/03/04 11:20:48;;;;;;;17.98;12.10;;;;;;;;;;143729;617;46008;-66
2022/03/04 11:23:30;;;;;;;15.10;11.85;;;;;;;;;;143731;584;45019;-67
2022/03/04 11:26:22;;;;;;;16.77;11.35;;;;;;;;;;143733;571;46018;-65
2022/03/04 11:28:50;;;;;;;15.95;11.63;;;;;;;;;;143727;655;46042;-67
2022/03/04 11:31:23;;;;;;;18.98;11.57;;;;;;;;;;143725;589;46019;-65
2022/03/04 11:33:58;;;;;;;14.00;10.90;;;;;;;;;;143731;573;45018;-66
2022/03/04 11:36:27;;;;;;;15.98;11.12;;;;;;;;;;143734;585;45018;-67
2022/03/04 11:39:00;;;;;;;13.93;10.52;;;;;;;;;;143727;595;46020;-66
2022/03/04 11:42:06;;;;;;;16.00;10.13;;;;;;;;;;143728;581;46008;-65
2022/03/04 11:44:52;;;;;;;18.33;11.27;;;;;;;;;;143730;580;45018;-66
2022/03/04 11:47:19;;;;;;;15.35;10.70;;;;;;;;;;143734;578;45032;-65
2022/03/04 11:49:47;;;;;;;16.95;10.43;;;;;;;;;;143725;576;47018;-66
2022/03/04 11:52:41;;;;;;;17.73;10.18;;;;;;;;;;143730;572;46008;-66
2022/03/04 11:55:13;;;;;;;13.20;10.48;;;;;;;;;;143730;618;45021;-65
2022/03/04 11:57:43;;;;;;;16.95;11.10;;;;;;;;;;143732;593;46018;-66
2022/03/04 12:00:30;;;;;;;22.23;14.43;;;;;;;;;;143727;627;46020;-67
2022/03/04 12:03:10;;;;;;;23.92;16.58;;;;;;;;;;143728;581;46008;-65
2022/03/04 12:05:38;;;;;;;24.80;17.65;;;;;;;;;;143730;756;45913;-66
2022/03/04 12:08:09;;;;;;;27.67;19.33;;;;;;;;;;143734;570;45019;-66
2022/03/04 12:10:47;;;;;;;14.52;11.18;;;;;;;;;;143729;569;46018;-66
2022/03/04 12:13:25;;;;;;;18.85;12.63;;;;;;;;;;143727;608;46008;-65
2022/03/04 12:16:07;;;;;;;16.17;11.35;;;;;;;;;;143731;584;46012;-66
2022/03/04 12:18:40;;;;;;;17.95;12.43;;;;;;;;;;143733;606;46018;-67
2022/03/04 12:21:15;;;;;;;19.05;11.70;;;;;;;;;;143728;589;46018;-66
2022/03/04 12:23:52;;;;;;;16.90;11.43;;;;;;;;;;143729;632;46008;-65
2022/03/04 12:26:24;;;;;;;17.60;9.90;;;;;;;;;;143731;795;45020;-65
2022/03/04 12:28:53;;;;;;;18.30;9.57;;;;;;;;;;143731;566;46018;-67
2022/03/04 12:31:24;;;;;;;14.57;9.90;;;;;;;;;;143729;631;46019;-65
2022/03/04 12:33:56;;;;;;;19.02;9.20;;;;;;;;;;143732;564;46008;-66
2022/03/04 12:36:26;;;;;;;14.82;9.70;;;;;;;;;;143731;615;45018;-66
2022/03/04 12:38:55;;;;;;;18.08;10.73;;;;;;;;;;143733;583;47019;-65
2022/03/04 12:41:25;;;;;;;15.00;9.43;;;;;;;;;;143729;592;46018;-66
2022/03/04 12:43:57;;;;;;;14.98;10.23;;;;;;;;;;143727;582;46008;-65
2022/03/04 12:46:29;;;;;;;15.68;11.05;;;;;;;;;;143732;589;45019;-65
2022/03/04 12:48:57;;;;;;;15.15;10.35;;;;;;;;;;143733;620;46018;-65
2022/03/04 12:51:45;;;;;;;12.88;9.48;;;;;;;;;;143731;624;45917;-66
2022/03/04 12:54:21;;;;;;;23.90;16.02;;;;;;;;;;143729;584;46008;-64
2022/03/04 12:57:04;;;;;;;52.22;31.08;;;;;;;;;;143731;627;45018;-65
2022/03/04 12:59:46;;;;;;;29.23;18.85;;;;;;;;;;143732;571;46018;-66
2022/03/04 13:02:13;;;;;;;32.22;21.58;;;;;;;;;;143727;618;46021;-65
2022/03/04 13:04:41;;;;;;;17.73;10.52;;;;;;;;;;143728;637;46008;-65
2022/03/04 13:07:08;;;;;;;13.27;8.80;;;;;;;;;;143730;623;45019;-66
2022/03/04 13:09:35;;;;;;;13.52;9.20;;;;;;;;;;143732;567;46019;-65
2022/03/04 13:12:08;;;;;;;15.63;8.95;;;;;;;;;;143729;618;46018;-65
2022/03/04 13:14:35;;;;;;;14.35;8.80;;;;;;;;;;143727;582;46009;-66
2022/03/04 13:17:10;;;;;;;10.40;7.95;;;;;;;;;;143728;601;45019;-66
2022/03/04 13:19:39;;;;;;;15.18;10.63;;;;;;;;;;143730;581;46018;-66
2022/03/04 13:22:11;;;;;;;14.73;9.73;;;;;;;;;;143725;577;46020;-65
2022/03/04 13:24:46;;;;;;;16.02;8.98;;;;;;;;;;143727;667;46008;-66
2022/03/04 13:27:14;;;;;;;;;;;;;;;;;;143735;982;45018;-65
2022/03/04 13:29:49;;;;;;;13.98;9.40;;;;;;;;;;143743;619;46008;-66
2022/03/04 13:32:23;;;;;;;13.23;8.23;;;;;;;;;;143725;594;46021;-67
2022/03/04 13:35:00;;;;;;;15.40;8.63;;;;;;;;;;143726;734;47008;-67
2022/03/04 13:37:38;;;;;;;15.35;9.02;;;;;;;;;;143729;570;45019;-66
2022/03/04 13:40:19;;;;;;;14.95;8.75;;;;;;;;;;143731;570;46018;-65
2022/03/04 13:42:56;;;;;;;11.65;7.97;;;;;;;;;;143725;590;46020;-65
2022/03/04 13:45:34;;;;;;;12.07;7.72;;;;;;;;;;143727;625;46008;-66
2022/03/04 13:48:02;;;;;;;14.10;8.40;;;;;;;;;;143729;588;45018;-65
2022/03/04 13:50:40;;;;;;;12.23;8.65;;;;;;;;;;143732;613;45018;-65
2022/03/04 13:53:14;;;;;;;13.27;8.25;;;;;;;;;;143726;570;46019;-66
2022/03/04 13:56:00;;;;;;;13.27;8.30;;;;;;;;;;143728;566;46008;-66
2022/03/04 13:58:30;;;;;;;10.82;7.70;;;;;;;;;;143729;584;45018;-65
2022/03/04 14:01:18;;;;;;;10.50;7.30;;;;;;;;;;143732;632;45019;-65
2022/03/04 14:03:47;;;;;;;16.87;8.05;;;;;;;;;;143725;579;46020;-66
2022/03/04 14:06:15;;;;;;;11.18;7.55;;;;;;;;;;143726;571;46009;-65
2022/03/04 14:08:42;;;;;;;9.75;6.82;;;;;;;;;;143727;572;46008;-65
2022/03/04 14:11:11;;;;;;;12.35;7.95;;;;;;;;;;143731;592;46008;-67
2022/03/04 14:13:39;;;;;;;13.93;7.72;;;;;;;;;;143726;564;46020;-65
2022/03/04 14:16:09;;;;;;;11.52;7.82;;;;;;;;;;143726;572;46018;-65
2022/03/04 14:18:36;;;;;;;12.80;7.80;;;;;;;;;;143729;565;46008;-65
2022/03/04 14:21:06;;;;;;;13.85;8.38;;;;;;;;;;143732;616;45018;-65
2022/03/04 14:23:37;;;;;;;10.98;7.43;;;;;;;;;;143726;576;46021;-66
2022/03/04 14:26:05;;;;;;;11.60;7.85;;;;;;;;;;143727;672;46008;-66
2022/03/04 14:28:33;;;;;;;12.73;7.80;;;;;;;;;;143729;566;45018;-66
2022/03/04 14:31:01;;;;;;;15.07;9.45;;;;;;;;;;143730;581;46008;-65
2022/03/04 14:33:28;;;;;;;12.45;8.30;;;;;;;;;;143727;606;46018;-65
2022/03/04 14:35:56;;;;;;;12.80;8.20;;;;;;;;;;143727;599;46008;-66
2022/03/04 14:38:23;;;;;;;12.95;9.20;;;;;;;;;;143729;611;45024;-67
2022/03/04 14:40:50;;;;;;;12.80;9.10;;;;;;;;;;143732;570;45018;-65
2022/03/04 14:43:21;;;;;;;12.68;8.40;;;;;;;;;;143726;592;46020;-65
2022/03/04 14:45:48;;;;;;;11.57;7.40;;;;;;;;;;143728;590;46008;-66
2022/03/04 14:48:15;;;;;;;14.15;7.80;;;;;;;;;;143728;596;46018;-65